Time;durP1;ratioP1;P1;durP2;ratioP2;P2;SDS_P1;SDS_P2;PMS_P1;PMS_P2;Temp;Humidity;BMP_temperature;BMP_pressure;BME280_temperature;BME280_humidity;BME280_pressure;Samples;Min_cycle;Max_cycle;Signal;HPM_P1;HPM_P2
2022/04/22 00:00:23;;;;;;;8.00;4.00;;;11.80;95.20;;;;;;4196568;28;20497;-84
2022/04/22 00:02:24;;;;;;;8.68;4.53;;;11.50;95.30;;;;;;4197019;28;20118;-85
2022/04/22 00:04:25;;;;;;;8.18;3.63;;;11.30;95.40;;;;;;4197774;28;20040;-85
2022/04/22 00:06:27;;;;;;;8.38;4.20;;;11.30;95.50;;;;;;4197732;28;20484;-85
2022/04/22 00:08:27;;;;;;;8.10;3.95;;;11.20;95.50;;;;;;4198127;28;20067;-85
2022/04/22 00:10:29;;;;;;;11.43;4.35;;;;;;;;;;4197495;28;20036;-85
2022/04/22 00:12:29;;;;;;;6.75;3.55;;;11.00;95.50;;;;;;4197810;28;20505;-85
2022/04/22 00:14:30;;;;;;;14.55;4.10;;;10.80;95.90;;;;;;4197798;28;20044;-85
2022/04/22 00:16:32;;;;;;;5.60;3.25;;;10.80;95.80;;;;;;4196473;28;20052;-85
2022/04/22 00:18:33;;;;;;;7.63;3.50;;;10.70;95.70;;;;;;4197559;28;20506;-85
2022/04/22 00:20:34;;;;;;;10.98;4.05;;;10.70;95.80;;;;;;4197680;28;20120;-85
2022/04/22 00:22:40;;;;;;;10.77;4.78;;;10.60;95.90;;;;;;4197316;28;20044;-85
2022/04/22 00:24:41;;;;;;;10.10;3.45;;;10.70;96.00;;;;;;4196333;28;20429;-85
2022/04/22 00:26:42;;;;;;;7.00;4.10;;;10.60;96.00;;;;;;4197121;28;20116;-85
2022/04/22 00:28:42;;;;;;;10.82;4.55;;;10.50;96.00;;;;;;4196859;28;20049;-85
2022/04/22 00:30:47;;;;;;;8.27;3.47;;;10.50;96.10;;;;;;4178603;28;20048;-84
2022/04/22 00:32:48;;;;;;;9.27;3.90;;;10.40;96.20;;;;;;4197803;28;20094;-85
2022/04/22 00:34:48;;;;;;;11.50;3.97;;;10.40;96.50;;;;;;4196172;28;20389;-86
2022/04/22 00:36:49;;;;;;;7.55;4.60;;;10.60;96.40;;;;;;4196662;28;20055;-85
2022/04/22 00:38:50;;;;;;;6.50;3.75;;;11.00;96.50;;;;;;4195688;28;20151;-84
2022/04/22 00:40:52;;;;;;;6.78;3.13;;;10.40;96.40;;;;;;4196649;28;20055;-85
2022/04/22 00:42:53;;;;;;;6.95;3.58;;;10.40;96.50;;;;;;4196902;28;20051;-85
2022/04/22 00:44:55;;;;;;;8.93;4.70;;;10.30;96.60;;;;;;4195785;28;20131;-85
2022/04/22 00:46:55;;;;;;;11.50;4.28;;;10.40;96.70;;;;;;4195702;28;20117;-85
2022/04/22 00:48:56;;;;;;;14.90;4.32;;;10.30;96.80;;;;;;4195578;28;20044;-84
2022/04/22 00:50:57;;;;;;;6.65;3.75;;;10.50;96.90;;;;;;4197244;28;20045;-85
2022/04/22 00:52:57;;;;;;;7.80;3.83;;;10.30;97.00;;;;;;4197180;28;20127;-84
2022/04/22 00:54:58;;;;;;;8.52;3.85;;;10.10;97.00;;;;;;4197162;28;20490;-84
2022/04/22 00:56:59;;;;;;;15.15;4.80;;;10.40;97.20;;;;;;4197326;28;20044;-84
2022/04/22 00:59:02;;;;;;;8.55;4.30;;;10.50;97.30;;;;;;4195364;28;20098;-85
2022/04/22 01:01:03;;;;;;;6.45;3.40;;;10.30;97.30;;;;;;4197108;28;20044;-85
2022/04/22 01:03:05;;;;;;;10.50;4.63;;;10.30;97.30;;;;;;4195340;28;20045;-85
2022/04/22 01:09:51;;;;;;;8.05;3.63;;;10.10;97.40;;;;;;4196597;28;20430;-84
2022/04/22 01:11:52;;;;;;;9.05;3.97;;;10.20;97.50;;;;;;4196258;28;20099;-85
2022/04/22 01:13:54;;;;;;;8.07;4.22;;;10.60;97.60;;;;;;4197040;28;20045;-85
2022/04/22 01:15:56;;;;;;;8.70;3.90;;;10.10;97.60;;;;;;4196835;28;20521;-85
2022/04/22 01:17:56;;;;;;;19.83;4.70;;;10.30;97.70;;;;;;4196996;28;20538;-85
2022/04/22 01:19:57;;;;;;;17.70;5.43;;;10.40;97.90;;;;;;4196973;28;20059;-85
2022/04/22 01:21:57;;;;;;;11.00;4.30;;;10.00;97.80;;;;;;4196341;28;20044;-85
2022/04/22 01:23:58;;;;;;;8.48;4.30;;;9.90;98.00;;;;;;4196928;28;20073;-85
2022/04/22 01:26:00;;;;;;;7.90;3.90;;;10.40;98.20;;;;;;4199355;28;20036;-85
2022/04/22 01:28:02;;;;;;;7.57;4.43;;;9.90;98.20;;;;;;4201274;28;20048;-85
2022/04/22 01:30:06;;;;;;;8.25;3.97;;;10.10;98.30;;;;;;4201435;28;20557;-85
2022/04/22 01:32:07;;;;;;;10.07;4.20;;;9.90;98.30;;;;;;4202558;28;20037;-85
2022/04/22 01:34:07;;;;;;;10.18;4.03;;;9.90;98.30;;;;;;4202608;28;20551;-85
2022/04/22 01:36:08;;;;;;;8.23;3.88;;;9.80;98.20;;;;;;4200982;28;20123;-85
2022/04/22 01:38:09;;;;;;;6.18;3.80;;;10.40;98.50;;;;;;4200019;28;20044;-85
2022/04/22 01:40:10;;;;;;;12.15;4.28;;;10.50;98.70;;;;;;4202060;28;20044;-85
2022/04/22 01:42:11;;;;;;;8.18;4.47;;;9.60;98.40;;;;;;4202499;28;20406;-85
2022/04/22 01:44:12;;;;;;;9.38;3.88;;;10.00;98.60;;;;;;4202176;28;20044;-84
2022/04/22 01:46:15;;;;;;;7.75;4.15;;;10.00;98.70;;;;;;4202125;28;20461;-85
2022/04/22 01:48:16;;;;;;;9.25;4.63;;;9.50;98.90;;;;;;4202510;28;20494;-85
2022/04/22 01:50:17;;;;;;;6.40;3.55;;;;;;;;;;4202304;28;20044;-85
2022/04/22 01:52:18;;;;;;;9.00;4.28;;;;;;;;;;4201175;28;20044;-86
2022/04/22 01:54:19;;;;;;;8.35;4.15;;;9.40;98.90;;;;;;4202282;28;20090;-84
2022/04/22 01:56:21;;;;;;;8.13;4.43;;;9.30;99.20;;;;;;4202493;28;20040;-85
2022/04/22 01:58:22;;;;;;;9.80;3.75;;;9.20;98.90;;;;;;4200809;28;20106;-85
2022/04/22 02:00:22;;;;;;;9.77;3.70;;;9.10;99.00;;;;;;4202253;28;20411;-85
2022/04/22 02:02:23;;;;;;;10.35;3.85;;;;;;;;;;4202250;28;20072;-85
2022/04/22 02:04:25;;;;;;;10.50;3.88;;;;;;;;;;4201696;28;20045;-86
2022/04/22 02:06:26;;;;;;;8.98;4.50;;;;;;;;;;4202607;28;20463;-85
2022/04/22 02:08:27;;;;;;;8.23;3.85;;;;;;;;;;4201668;28;20123;-85
2022/04/22 02:10:28;;;;;;;8.93;4.50;;;;;;;;;;4202600;28;20055;-84
2022/04/22 02:12:30;;;;;;;11.20;4.47;;;;;;;;;;4202369;28;20490;-85
2022/04/22 02:14:31;;;;;;;12.25;4.00;;;;;;;;;;4202318;28;20494;-84
2022/04/22 02:16:32;;;;;;;8.90;4.20;;;;;;;;;;4201549;28;20442;-85
2022/04/22 02:18:36;;;;;;;11.98;4.90;;;;;;;;;;4202278;28;20040;-85
2022/04/22 02:20:37;;;;;;;11.93;5.03;;;;;;;;;;4201720;28;20063;-84
2022/04/22 02:22:39;;;;;;;8.45;4.00;;;;;;;;;;4202153;28;20475;-86
2022/04/22 02:24:40;;;;;;;9.93;3.83;;;;;;;;;;4200206;28;20051;-85
2022/04/22 02:29:01;;;;;;;11.90;4.32;;;;;;;;;;4185468;28;20045;-85
2022/04/22 02:31:02;;;;;;;10.10;3.75;;;;;;;;;;4185278;28;20045;-85
2022/04/22 02:33:04;;;;;;;5.88;3.60;;;;;;;;;;4185656;28;20425;-84
2022/04/22 02:35:05;;;;;;;8.27;3.63;;;;;;;;;;4185908;28;20155;-84
2022/04/22 02:37:06;;;;;;;10.82;3.67;;;;;;;;;;4184262;28;20554;-84
2022/04/22 02:39:07;;;;;;;6.32;3.50;;;9.40;99.20;;;;;;4182975;28;20128;-86
2022/04/22 02:45:47;;;;;;;10.57;3.55;;;;;;;;;;4184031;28;20150;-86
2022/04/22 02:47:48;;;;;;;8.70;3.65;;;;;;;;;;4181230;28;20045;-85
2022/04/22 02:49:49;;;;;;;6.55;3.20;;;8.60;99.90;;;;;;4182779;28;20406;-85
2022/04/22 02:51:51;;;;;;;9.55;3.42;;;;;;;;;;4182516;28;20049;-85
2022/04/22 02:53:52;;;;;;;8.48;3.72;;;;;;;;;;4182650;28;20494;-85
2022/04/22 02:55:53;;;;;;;10.38;3.38;;;;;;;;;;4182517;28;20045;-85
2022/04/22 02:57:54;;;;;;;15.57;4.13;;;;;;;;;;4182775;28;20041;-85
2022/04/22 02:59:56;;;;;;;6.63;3.88;;;;;;;;;;4198987;28;20052;-86
2022/04/22 03:01:57;;;;;;;9.13;3.88;;;;;;;;;;4199094;28;20044;-85
2022/04/22 03:03:58;;;;;;;9.02;3.63;;;;;;;;;;4199069;28;20040;-85
2022/04/22 03:05:59;;;;;;;8.77;3.72;;;;;;;;;;4198346;28;20048;-85
2022/04/22 03:08:01;;;;;;;11.18;3.60;;;;;;;;;;4197596;28;20116;-85
2022/04/22 03:10:02;;;;;;;9.13;3.78;;;;;;;;;;4198920;28;20049;-85
2022/04/22 03:12:03;;;;;;;10.63;3.67;;;;;;;;;;4199022;28;20410;-85
2022/04/22 03:14:05;;;;;;;6.10;3.60;;;;;;;;;;4197563;28;20055;-85
2022/04/22 03:16:06;;;;;;;8.93;3.60;;;;;;;;;;4198346;28;20135;-85
2022/04/22 03:18:07;;;;;;;7.35;3.70;;;;;;;;;;4197467;28;20121;-85
2022/04/22 03:20:08;;;;;;;10.02;4.50;;;;;;;;;;4198193;28;20099;-85
2022/04/22 03:22:10;;;;;;;12.30;4.18;;;;;;;;;;4198907;28;20041;-85
2022/04/22 03:24:11;;;;;;;10.00;4.55;;;;;;;;;;4197077;28;20048;-85
2022/04/22 03:26:12;;;;;;;11.27;3.65;;;;;;;;;;4198752;28;20466;-85
2022/04/22 03:28:13;;;;;;;8.27;4.00;;;;;;;;;;4198511;28;20099;-85
2022/04/22 03:30:14;;;;;;;10.82;4.28;;;;;;;;;;4198172;28;20127;-85
2022/04/22 03:32:15;;;;;;;7.75;3.70;;;;;;;;;;4197448;28;20089;-85
2022/04/22 03:34:16;;;;;;;10.55;4.13;;;;;;;;;;4198621;28;20045;-86
2022/04/22 03:36:17;;;;;;;8.15;3.78;;;;;;;;;;4198420;28;20049;-85
2022/04/22 03:38:19;;;;;;;7.25;3.70;;;;;;;;;;4198420;28;20462;-85
2022/04/22 03:40:20;;;;;;;7.72;3.60;;;;;;;;;;4197093;28;20052;-85
2022/04/22 03:42:21;;;;;;;9.75;3.78;;;;;;;;;;4198568;28;20185;-84
2022/04/22 03:44:22;;;;;;;7.68;3.63;;;;;;;;;;4197911;28;20128;-85
2022/04/22 03:46:24;;;;;;;6.78;3.50;;;;;;;;;;4197419;28;20048;-85
2022/04/22 03:48:25;;;;;;;11.55;3.38;;;;;;;;;;4197840;28;20041;-85
2022/04/22 03:50:27;;;;;;;8.50;4.05;;;;;;;;;;4198178;28;20052;-85
2022/04/22 03:52:28;;;;;;;7.13;4.05;;;;;;;;;;4198225;28;20063;-85
2022/04/22 03:54:29;;;;;;;8.52;3.92;;;;;;;;;;4198246;28;20055;-85
2022/04/22 03:58:50;;;;;;;6.13;3.15;;;;;;;;;;4197797;28;20059;-85
2022/04/22 04:00:53;;;;;;;8.27;3.58;;;;;;;;;;4198160;28;20076;-85
2022/04/22 04:02:54;;;;;;;7.65;3.78;;;8.90;99.90;;;;;;4196691;28;20044;-84
2022/04/22 04:04:55;;;;;;;5.65;3.42;;;7.70;99.90;;;;;;4197838;28;20056;-85
2022/04/22 04:06:56;;;;;;;9.98;3.30;;;7.60;99.90;;;;;;4196472;28;20095;-85
2022/04/22 04:16:00;;;;;;;8.18;3.88;;;7.40;99.90;;;;;;4197462;28;19924;-85
2022/04/22 04:18:01;;;;;;;7.22;3.40;;;7.40;99.90;;;;;;4197713;28;20454;-85
2022/04/22 04:24:41;;;;;;;7.85;3.70;;;7.30;99.90;;;;;;4197319;28;20049;-85
2022/04/22 04:26:42;;;;;;;5.63;3.22;;;;;;;;;;4197509;28;20048;-85
2022/04/22 04:28:44;;;;;;;5.50;3.53;;;;;;;;;;4196591;28;20040;-85
2022/04/22 04:30:46;;;;;;;4.95;2.92;;;7.20;99.90;;;;;;4197779;28;20049;-84
2022/04/22 04:32:47;;;;;;;5.07;3.03;;;7.20;99.90;;;;;;4196871;28;20048;-85
2022/04/22 04:34:47;;;;;;;7.18;3.72;;;7.10;99.90;;;;;;4197394;28;20481;-85
2022/04/22 04:36:48;;;;;;;7.93;3.65;;;7.10;99.90;;;;;;4196608;28;20181;-85
2022/04/22 04:38:49;;;;;;;9.15;3.22;;;7.80;99.90;;;;;;4197518;28;20048;-85
2022/04/22 04:40:51;;;;;;;5.53;2.72;;;7.10;99.90;;;;;;4195456;28;20075;-85
2022/04/22 04:42:52;;;;;;;4.82;2.85;;;7.10;99.90;;;;;;4197429;28;20444;-85
2022/04/22 04:44:53;;;;;;;5.65;3.10;;;7.10;99.90;;;;;;4197384;28;20446;-86
2022/04/22 04:46:54;;;;;;;8.85;2.95;;;7.10;99.90;;;;;;4197480;28;20040;-85
2022/04/22 04:48:57;;;;;;;5.47;2.70;;;7.50;99.90;;;;;;4197396;28;20044;-84
2022/04/22 04:50:58;;;;;;;12.88;3.53;;;7.10;99.90;;;;;;4197062;28;20055;-84
2022/04/22 04:52:59;;;;;;;5.35;2.83;;;7.20;99.90;;;;;;4197496;28;20115;-84
2022/04/22 04:55:00;;;;;;;7.63;2.75;;;7.30;99.90;;;;;;4194856;28;20052;-85
2022/04/22 04:57:01;;;;;;;6.45;2.90;;;7.10;99.90;;;;;;4181090;28;20116;-84
2022/04/22 04:59:02;;;;;;;4.57;2.50;;;7.10;99.90;;;;;;4190237;28;20395;-85
2022/04/22 05:01:03;;;;;;;4.35;2.60;;;7.10;99.90;;;;;;4196304;28;20406;-85
2022/04/22 05:03:04;;;;;;;4.90;2.47;;;7.20;99.90;;;;;;4179983;28;20502;-84
2022/04/22 05:05:06;;;;;;;5.18;2.80;;;7.20;99.90;;;;;;4195788;28;20521;-85
2022/04/22 05:07:07;;;;;;;9.43;3.67;;;7.20;99.90;;;;;;4195966;28;20055;-84
2022/04/22 05:09:07;;;;;;;5.65;2.63;;;7.20;99.90;;;;;;4197237;28;20067;-83
2022/04/22 05:11:08;;;;;;;5.43;2.70;;;7.30;99.90;;;;;;4197033;28;20524;-83
2022/04/22 05:13:09;;;;;;;5.45;2.88;;;7.30;99.90;;;;;;4195395;28;20048;-84
2022/04/22 05:15:11;;;;;;;4.90;2.50;;;7.30;99.90;;;;;;4197201;28;20068;-84
2022/04/22 05:17:12;;;;;;;4.95;2.35;;;7.30;99.90;;;;;;4194446;28;20053;-84
2022/04/22 05:19:13;;;;;;;4.00;2.17;;;8.00;99.90;;;;;;4185715;28;20131;-85
2022/04/22 05:21:13;;;;;;;4.57;2.70;;;7.40;99.90;;;;;;4195227;28;20731;-84
2022/04/22 05:23:14;;;;;;;5.03;2.55;;;8.40;99.90;;;;;;4196372;28;20044;-85
2022/04/22 05:25:16;;;;;;;4.85;2.33;;;7.40;99.90;;;;;;4197086;28;20049;-85
2022/04/22 05:27:16;;;;;;;5.95;2.40;;;7.40;99.90;;;;;;4197391;28;20075;-85
2022/04/22 05:33:56;;;;;;;8.80;2.47;;;;;;;;;;4195003;28;19932;-85
2022/04/22 05:35:57;;;;;;;2.80;1.75;;;;;;;;;;4196326;28;20064;-84
2022/04/22 05:37:59;;;;;;;6.00;2.17;;;;;;;;;;4196966;28;20045;-86
2022/04/22 05:40:00;;;;;;;6.18;2.17;;;;;;;;;;4196551;28;20044;-84
2022/04/22 05:42:01;;;;;;;4.68;1.88;;;;;;;;;;4184553;28;20589;-84
2022/04/22 05:44:03;;;;;;;5.25;1.85;;;7.90;99.90;;;;;;4193933;28;20399;-84
2022/04/22 05:46:04;;;;;;;4.60;2.20;;;7.90;99.90;;;;;;4192628;28;20086;-84
2022/04/22 05:48:05;;;;;;;6.53;2.10;;;;;;;;;;4184315;28;20045;-85
2022/04/22 05:50:11;;;;;;;5.03;2.03;;;8.00;99.90;;;;;;4182993;28;20515;-85
2022/04/22 05:52:12;;;;;;;4.60;2.47;;;8.00;99.90;;;;;;4184742;28;20049;-85
2022/04/22 05:54:14;;;;;;;5.65;2.30;;;8.10;99.90;;;;;;4190319;28;20051;-85
2022/04/22 05:56:15;;;;;;;9.57;2.67;;;8.20;99.90;;;;;;4187016;28;20048;-85
2022/04/22 05:58:17;;;;;;;5.78;2.15;;;;;;;;;;4191855;28;20040;-85
2022/04/22 06:00:19;;;;;;;3.75;1.60;;;;;;;;;;4187088;28;20037;-85
2022/04/22 06:02:20;;;;;;;4.07;1.95;;;;;;;;;;4187455;28;20063;-84
2022/04/22 06:04:21;;;;;;;8.13;2.05;;;;;;;;;;4184005;28;20045;-84
2022/04/22 06:06:22;;;;;;;2.92;1.50;;;;;;;;;;4191271;28;20056;-84
2022/04/22 06:10:43;;;;;;;3.08;1.88;;;;;;;;;;4189331;28;20387;-85
2022/04/22 06:12:44;;;;;;;4.85;1.73;;;;;;;;;;4181999;28;20053;-85
2022/04/22 06:14:46;;;;;;;5.05;1.80;;;;;;;;;;4183899;28;20474;-86
2022/04/22 06:16:48;;;;;;;7.70;2.40;;;;;;;;;;4182960;28;20420;-85
2022/04/22 06:18:50;;;;;;;3.97;2.08;;;;;;;;;;4182977;28;20056;-86
2022/04/22 06:20:51;;;;;;;4.20;1.48;;;;;;;;;;4183889;28;20044;-85
2022/04/22 06:22:52;;;;;;;2.88;2.00;;;;;;;;;;4191637;28;20044;-86
2022/04/22 06:24:54;;;;;;;4.82;1.80;;;;;;;;;;4200913;28;20075;-85
2022/04/22 06:26:55;;;;;;;8.52;2.00;;;;;;;;;;4199640;28;20049;-85
2022/04/22 06:28:57;;;;;;;3.35;2.05;;;;;;;;;;4205271;28;20430;-85
2022/04/22 06:30:58;;;;;;;3.88;1.70;;;;;;;;;;4206258;28;20040;-85
2022/04/22 06:33:03;;;;;;;4.40;1.58;;;;;;;;;;4207886;28;20123;-85
2022/04/22 06:35:05;;;;;;;3.22;1.63;;;;;;;;;;4206444;28;20048;-86
2022/04/22 06:37:06;;;;;;;4.80;2.00;;;;;;;;;;4204363;28;20478;-86
2022/04/22 06:39:08;;;;;;;3.42;1.90;;;;;;;;;;4189069;28;20049;-86
2022/04/22 06:45:50;;;;;;;9.52;2.10;;;;;;;;;;4204021;28;20072;-85
2022/04/22 06:47:51;;;;;;;4.50;1.88;;;;;;;;;;4196098;28;20067;-85
2022/04/22 06:49:53;;;;;;;6.43;2.05;;;;;;;;;;4200828;28;20439;-84
2022/04/22 06:51:55;;;;;;;7.03;1.70;;;;;;;;;;4199596;28;20048;-85
2022/04/22 06:53:56;;;;;;;3.50;1.92;;;;;;;;;;4194650;28;20063;-84
2022/04/22 06:56:02;;;;;;;3.33;1.75;;;;;;;;;;4195903;28;20044;-85
2022/04/22 06:58:03;;;;;;;4.13;1.70;;;;;;;;;;4217407;28;20044;-84
2022/04/22 07:00:04;;;;;;;4.22;1.48;;;;;;;;;;4217631;28;20375;-85
2022/04/22 07:02:07;;;;;;;5.70;2.33;;;;;;;;;;4217131;28;20547;-85
2022/04/22 07:04:09;;;;;;;3.85;1.77;;;;;;;;;;4216328;28;20109;-85
2022/04/22 07:06:10;;;;;;;2.97;1.65;;;;;;;;;;4217662;28;20055;-85
2022/04/22 07:08:14;;;;;;;4.72;2.17;;;;;;;;;;4217367;28;20044;-84
2022/04/22 07:10:16;;;;;;;5.13;2.08;;;;;;;;;;4217658;28;20040;-84
2022/04/22 07:12:18;;;;;;;6.68;1.45;;;;;;;;;;4212029;28;20052;-84
2022/04/22 07:14:20;;;;;;;3.40;2.13;;;;;;;;;;4201692;28;20048;-84
2022/04/22 07:16:22;;;;;;;6.22;1.70;;;;;;;;;;4201582;28;20447;-85
2022/04/22 07:18:24;;;;;;;3.00;1.80;;;;;;;;;;4201138;28;20051;-85
2022/04/22 07:20:25;;;;;;;4.57;1.90;;;;;;;;;;4194092;28;20049;-84
2022/04/22 07:22:27;;;;;;;3.58;1.60;;;;;;;;;;4194955;28;20033;-84
2022/04/22 07:24:28;;;;;;;4.25;2.08;;;;;;;;;;4196027;28;20040;-84
2022/04/22 07:26:31;;;;;;;2.88;1.75;;;;;;;;;;4214579;28;20056;-85
2022/04/22 07:28:33;;;;;;;3.40;1.60;;;;;;;;;;4198905;28;20045;-84
2022/04/22 07:30:34;;;;;;;6.50;2.72;;;;;;;;;;4198546;28;20052;-84
2022/04/22 07:32:39;;;;;;;5.43;1.95;;;;;;;;;;4190959;28;20107;-85
2022/04/22 07:34:40;;;;;;;7.13;1.80;;;;;;;;;;4195298;28;20045;-85
2022/04/22 07:36:42;;;;;;;3.53;1.73;;;;;;;;;;4199709;28;20402;-85
2022/04/22 07:38:44;;;;;;;2.70;1.50;;;;;;;;;;4200034;28;20075;-86
2022/04/22 07:40:50;;;;;;;2.47;1.65;;;;;;;;;;4199885;28;20044;-86
2022/04/22 07:47:33;;;;;;;2.78;1.63;;;;;;;;;;4195186;28;20063;-85
2022/04/22 07:49:35;;;;;;;7.82;2.40;;;;;;;;;;4183467;28;20584;-84
2022/04/22 07:51:37;;;;;;;3.78;1.77;;;;;;;;;;4184865;28;20380;-85
2022/04/22 07:53:38;;;;;;;4.60;1.63;;;;;;;;;;4184244;28;20041;-85
2022/04/22 07:55:39;;;;;;;4.10;1.90;;;;;;;;;;4184672;28;20049;-85
2022/04/22 07:57:41;;;;;;;4.13;2.50;;;;;;;;;;4183038;28;20411;-86
2022/04/22 07:59:42;;;;;;;5.38;2.28;;;;;;;;;;4182704;28;20088;-85
2022/04/22 08:01:44;;;;;;;6.05;1.95;;;;;;;;;;4182912;28;20048;-86
2022/04/22 08:03:45;;;;;;;4.25;1.75;;;;;;;;;;4182859;28;20087;-87
2022/04/22 08:05:46;;;;;;;6.45;1.60;;;;;;;;;;4182909;28;20056;-87
2022/04/22 08:07:47;;;;;;;3.05;2.10;;;;;;;;;;4181642;28;20067;-87
2022/04/22 08:09:49;;;;;;;2.70;1.60;;;;;;;;;;4181984;28;20045;-85
2022/04/22 08:11:50;;;;;;;5.45;1.85;;;;;;;;;;4182482;28;20045;-85
2022/04/22 08:13:51;;;;;;;2.30;1.63;;;;;;;;;;4180906;28;20475;-85
2022/04/22 08:15:52;;;;;;;3.30;1.75;;;;;;;;;;4180955;28;20123;-85
2022/04/22 08:17:53;;;;;;;2.42;1.55;;;;;;;;;;4197156;28;20570;-85
2022/04/22 08:19:55;;;;;;;6.32;2.15;;;;;;;;;;4199103;28;20095;-85
2022/04/22 08:21:57;;;;;;;6.47;2.38;;;;;;;;;;4193567;28;20506;-85
2022/04/22 08:23:58;;;;;;;3.63;1.63;;;;;;;;;;4191329;28;20041;-86
2022/04/22 08:25:59;;;;;;;5.18;1.98;;;;;;;;;;4193885;28;20071;-86
2022/04/22 08:28:02;;;;;;;4.22;1.42;;;;;;;;;;4198650;28;20399;-86
2022/04/22 08:30:05;;;;;;;3.28;1.40;;;;;;;;;;4197383;28;20094;-86
2022/04/22 08:32:09;;;;;;;5.25;1.70;;;;;;;;;;4199236;28;20059;-86
2022/04/22 08:34:11;;;;;;;6.28;1.90;;;;;;;;;;4196727;28;20064;-86
2022/04/22 08:36:13;;;;;;;5.82;1.70;;;;;;;;;;4196788;28;20079;-86
2022/04/22 08:38:18;;;;;;;6.45;1.50;;;;;;;;;;4199114;28;20394;-86
2022/04/22 08:40:20;;;;;;;5.20;1.45;;;;;;;;;;4197746;28;20124;-86
2022/04/22 08:42:24;;;;;;;5.85;2.00;;;;;;;;;;4197192;28;20045;-86
2022/04/22 08:44:27;;;;;;;2.17;1.35;;;;;;;;;;4185091;28;20469;-86
2022/04/22 08:51:09;;;;;;;6.00;1.80;;;;;;;;;;4198910;28;20052;-87
2022/04/22 08:53:12;;;;;;;6.25;2.00;;;;;;;;;;4199320;28;20498;-86
2022/04/22 08:55:13;;;;;;;4.45;1.67;;;;;;;;;;4199665;28;20040;-85
2022/04/22 08:57:14;;;;;;;4.53;1.45;;;;;;;;;;4196306;28;20568;-85
2022/04/22 08:59:16;;;;;;;7.93;1.95;;;;;;;;;;4185567;28;20119;-86
2022/04/22 09:01:17;;;;;;;2.78;1.40;;;;;;;;;;4198118;28;20087;-86
2022/04/22 09:03:20;;;;;;;3.80;1.60;;;;;;;;;;4197102;28;20041;-87
2022/04/22 09:05:22;;;;;;;4.47;1.80;;;;;;;;;;4199027;28;20116;-87
2022/04/22 09:07:30;;;;;;;3.90;1.45;;;;;;;;;;4198909;28;20037;-87
2022/04/22 09:09:32;;;;;;;4.57;1.70;;;;;;;;;;4199276;28;20044;-86
2022/04/22 09:11:40;;;;;;;4.95;1.60;;;;;;;;;;4199541;28;20045;-87
2022/04/22 09:13:41;;;;;;;3.93;1.73;;;;;;;;;;4199387;28;20045;-87
2022/04/22 09:15:42;;;;;;;3.78;1.75;;;;;;;;;;4198785;28;20102;-87
2022/04/22 09:17:43;;;;;;;2.42;1.25;;;;;;;;;;4199442;28;20050;-87
2022/04/22 09:19:45;;;;;;;2.85;1.67;;;;;;;;;;4198653;28;20402;-87
2022/04/22 09:21:56;;;;;;;3.40;2.05;;;;;;;;;;4198647;28;20248;-84
2022/04/22 09:24:10;;;;;;;4.75;1.70;;;;;;;;;;4199115;28;20045;-88
2022/04/22 09:26:24;;;;;;;3.97;1.75;;;;;;;;;;4197992;28;20045;-86
2022/04/22 09:28:25;;;;;;;3.72;1.55;;;;;;;;;;4189442;28;20073;-86
2022/04/22 09:30:26;;;;;;;3.00;1.58;;;;;;;;;;4195075;28;20052;-87
2022/04/22 09:32:28;;;;;;;4.57;1.70;;;;;;;;;;4198956;28;20048;-87
2022/04/22 09:34:42;;;;;;;3.80;1.67;;;;;;;;;;4199171;28;20127;-85
2022/04/22 09:43:56;;;;;;;4.65;1.40;;;;;;;;;;4197558;28;20094;-86
2022/04/22 09:45:57;;;;;;;6.78;2.03;;;;;;;;;;4197128;28;20048;-87
2022/04/22 09:47:59;;;;;;;3.63;1.70;;;;;;;;;;4198872;28;20482;-87
2022/04/22 09:50:08;;;;;;;3.53;1.70;;;;;;;;;;4205066;28;20049;-86
2022/04/22 09:52:09;;;;;;;4.45;1.42;;;;;;;;;;4203979;28;20514;-86
2022/04/22 09:54:10;;;;;;;4.10;1.63;;;;;;;;;;4202481;28;20051;-87
2022/04/22 09:56:12;;;;;;;5.40;1.80;;;;;;;;;;4200831;28;20059;-87
2022/04/22 09:58:13;;;;;;;4.72;1.45;;;;;;;;;;4201859;28;20044;-88
2022/04/22 10:00:16;;;;;;;2.33;1.48;;;;;;;;;;4202576;28;20101;-88
2022/04/22 10:02:21;;;;;;;4.75;1.85;;;;;;;;;;4201732;28;20410;-87
2022/04/22 10:04:23;;;;;;;2.70;1.42;;;;;;;;;;4202217;28;20100;-87
2022/04/22 10:06:24;;;;;;;6.50;1.50;;;;;;;;;;4200251;28;20046;-87
2022/04/22 10:08:28;;;;;;;5.43;2.03;;;;;;;;;;4201709;28;20076;-83
2022/04/22 10:10:33;;;;;;;4.15;2.13;;;;;;;;;;4201345;28;20044;-83
2022/04/22 10:12:34;;;;;;;6.50;1.98;;;;;;;;;;4201195;28;20048;-83
2022/04/22 10:14:38;;;;;;;2.83;2.03;;;;;;;;;;4199749;28;20056;-83
2022/04/22 10:16:39;;;;;;;4.97;1.80;;;;;;;;;;4199647;28;20502;-83
2022/04/22 10:18:42;;;;;;;4.00;2.15;;;;;;;;;;4201276;28;20049;-83
2022/04/22 10:20:43;;;;;;;5.25;1.98;;;;;;;;;;4201441;28;20106;-83
2022/04/22 10:22:44;;;;;;;3.33;1.50;;;;;;;;;;4201272;28;20045;-83
2022/04/22 10:24:47;;;;;;;2.33;1.40;;;;;;;;;;4201506;28;20048;-83
2022/04/22 10:26:49;;;;;;;3.03;1.88;;;;;;;;;;4201349;28;20052;-84
2022/04/22 10:28:50;;;;;;;3.25;1.85;;;;;;;;;;4200710;28;20040;-84
2022/04/22 10:31:00;;;;;;;7.28;1.85;;;;;;;;;;4201639;28;20037;-84
2022/04/22 10:33:01;;;;;;;;;;;;;;;;;;4201718;28;20522;-84
2022/04/22 10:35:03;;;;;;;3.28;1.85;;;;;;;;;;4199647;28;19920;-83
2022/04/22 10:37:04;;;;;;;5.25;1.88;;;;;;;;;;4200452;28;20123;-83
2022/04/22 10:39:05;;;;;;;3.42;1.80;;;;;;;;;;4201203;28;20051;-83
2022/04/22 10:41:17;;;;;;;5.93;2.33;;;;;;;;;;4199872;28;20040;-83
2022/04/22 10:43:18;;;;;;;4.07;1.90;;;;;;;;;;4199262;28;20048;-83
2022/04/22 10:47:43;;;;;;;4.90;1.80;;;;;;;;;;4200997;28;20049;-83
2022/04/22 10:49:45;;;;;;;3.83;2.30;;;;;;;;;;4200693;28;20533;-83
2022/04/22 10:52:03;;;;;;;3.88;1.90;;;;;;;;;;4200652;28;20211;-83
2022/04/22 10:54:04;;;;;;;4.95;1.70;;;;;;;;;;4200605;28;20052;-83
2022/04/22 10:56:24;;;;;;;5.30;2.00;;;;;;;;;;4201072;28;20044;-84
2022/04/22 10:58:25;;;;;;;5.68;2.22;;;;;;;;;;4198866;28;20036;-84
2022/04/22 11:00:30;;;;;;;6.40;1.98;;;;;;;;;;4200792;28;20041;-83
2022/04/22 11:02:33;;;;;;;8.40;3.05;;;;;;;;;;4199452;28;20066;-83
2022/04/22 11:04:36;;;;;;;4.55;2.13;;;;;;;;;;4200490;28;20045;-83
2022/04/22 11:06:37;;;;;;;4.50;1.95;;;;;;;;;;4200725;28;20119;-83
2022/04/22 11:08:41;;;;;;;4.68;2.10;;;;;;;;;;4199915;28;20048;-83
2022/04/22 11:10:48;;;;;;;4.80;1.95;;;;;;;;;;4200260;28;20063;-84
2022/04/22 11:12:56;;;;;;;3.22;2.13;;;;;;;;;;4200223;28;20052;-83
2022/04/22 11:14:57;;;;;;;6.18;2.00;;;;;;;;;;4199979;28;20076;-82
2022/04/22 11:17:17;;;;;;;4.80;2.30;;;;;;;;;;4200120;28;20400;-84
2022/04/22 11:19:18;;;;;;;5.10;1.95;;;;;;;;;;4199988;28;20082;-84
2022/04/22 11:21:19;;;;;;;5.70;2.72;;;;;;;;;;4199786;28;20083;-84
2022/04/22 11:23:20;;;;;;;3.75;2.20;;;;;;;;;;4200123;28;20044;-84
2022/04/22 11:25:29;;;;;;;5.18;2.03;;;;;;;;;;4203478;28;20100;-84
2022/04/22 11:27:30;;;;;;;;;;;;;;;;;;4198924;28;20130;-83
2022/04/22 11:29:31;;;;;;;5.25;2.03;;;;;;;;;;4200032;28;20011;-84
2022/04/22 11:31:34;;;;;;;5.63;1.92;;;;;;;;;;4200146;28;20512;-84
2022/04/22 11:33:45;;;;;;;2.80;1.92;;;;;;;;;;4199921;28;20048;-84
2022/04/22 11:35:49;;;;;;;3.58;2.08;;;;;;;;;;4195307;28;20045;-84
2022/04/22 11:38:00;;;;;;;4.78;2.00;;;;;;;;;;4183151;28;20072;-84
2022/04/22 11:40:01;;;;;;;3.22;2.00;;;;;;;;;;4165227;28;20049;-84
2022/04/22 11:42:02;;;;;;;2.72;2.35;;;;;;;;;;4183171;28;20045;-84
2022/04/22 11:44:05;;;;;;;2.65;1.98;;;;;;;;;;4181967;28;20045;-84
2022/04/22 11:46:06;;;;;;;5.50;2.17;;;;;;;;;;4182283;28;20064;-84
2022/04/22 11:48:10;;;;;;;5.10;2.13;;;;;;;;;;4183226;28;20049;-84
2022/04/22 11:50:19;;;;;;;4.55;2.00;;;;;;;;;;4183186;28;20037;-84
2022/04/22 11:52:21;;;;;;;5.37;2.20;;;;;;;;;;4181796;28;20518;-84
2022/04/22 11:54:25;;;;;;;4.07;2.03;;;;;;;;;;4183227;28;20075;-85
2022/04/22 11:56:26;;;;;;;6.30;2.10;;;;;;;;;;4183179;28;20049;-85
2022/04/22 11:58:27;;;;;;;4.20;2.70;;;;;;;;;;4182795;28;20045;-84
2022/04/22 12:08:00;;;;;;;3.67;2.30;;;;;;;;;;4182702;28;20053;-84
2022/04/22 12:10:04;;;;;;;8.00;2.47;;;;;;;;;;4182460;28;20517;-84
2022/04/22 12:12:06;;;;;;;4.30;2.30;;;;;;;;;;4181121;28;20061;-84
2022/04/22 12:14:08;;;;;;;2.83;2.28;;;;;;;;;;4182459;28;20060;-84
2022/04/22 12:16:09;;;;;;;6.72;2.50;;;;;;;;;;4180880;28;20427;-84
2022/04/22 12:18:24;;;;;;;5.00;2.28;;;;;;;;;;4183127;28;20060;-84
2022/04/22 12:20:26;;;;;;;5.28;2.60;;;;;;;;;;4182847;28;20045;-85
2022/04/22 12:22:28;;;;;;;5.97;2.40;;;;;;;;;;4181447;28;20186;-86
2022/04/22 12:24:29;;;;;;;3.65;2.45;;;;;;;;;;4182984;28;20049;-85
2022/04/22 12:26:34;;;;;;;3.58;2.05;;;;;;;;;;4182689;28;20124;-85
2022/04/22 12:28:36;;;;;;;6.13;2.80;;;;;;;;;;4182614;28;20052;-86
2022/04/22 12:30:37;;;;;;;3.65;2.38;;;;;;;;;;4180948;28;20075;-85
2022/04/22 12:32:39;;;;;;;4.30;2.25;;;;;;;;;;4182361;28;20072;-85
2022/04/22 12:34:41;;;;;;;5.40;2.55;;;;;;;;;;4188364;28;20088;-86
2022/04/22 12:36:51;;;;;;;3.50;2.00;;;;;;;;;;4198438;28;20851;-84
2022/04/22 12:38:52;;;;;;;5.70;2.60;;;;;;;;;;4199733;28;20174;-84
2022/04/22 12:40:54;;;;;;;4.05;2.42;;;;;;;;;;4196990;28;20371;-84
2022/04/22 12:42:55;;;;;;;6.75;2.60;;;;;;;;;;4182362;28;20556;-83
2022/04/22 12:52:17;;;;;;;5.97;2.40;;;;;;;;;;4182442;28;20422;-85
2022/04/22 12:54:18;;;;;;;4.40;2.78;;;;;;;;;;4193252;28;20048;-86